createdAt,value
2018-05-11T00:00:29.691Z,11.40
2018-05-11T00:02:57.173Z,11.30
2018-05-11T00:05:24.671Z,11.30
2018-05-11T00:07:52.271Z,11.30
2018-05-11T00:10:19.761Z,11.30
2018-05-11T00:12:48.029Z,11.20
2018-05-11T00:15:15.581Z,11.20
2018-05-11T00:17:43.046Z,11.20
2018-05-11T00:20:10.526Z,11.20
2018-05-11T00:22:37.994Z,11.30
2018-05-11T00:25:05.561Z,11.20
2018-05-11T00:27:33.065Z,11.20
2018-05-11T00:30:01.329Z,11.20
2018-05-11T00:32:28.798Z,11.20
2018-05-11T00:34:56.298Z,11.10
2018-05-11T00:37:24.537Z,11.10
2018-05-11T00:39:52.011Z,11.10
2018-05-11T00:42:19.502Z,11.10
2018-05-11T00:44:47.071Z,11.00
2018-05-11T00:47:14.572Z,11.10
2018-05-11T00:49:42.809Z,11.00
2018-05-11T00:52:10.273Z,11.00
2018-05-11T00:54:37.749Z,11.00
2018-05-11T00:57:05.352Z,11.00
2018-05-11T00:59:33.629Z,11.00
2018-05-11T01:02:01.117Z,10.90
2018-05-11T01:04:29.370Z,10.90
2018-05-11T01:06:56.834Z,10.80
2018-05-11T01:09:24.316Z,10.80
2018-05-11T01:11:51.800Z,10.80
2018-05-11T01:14:19.289Z,10.80
2018-05-11T01:16:47.577Z,10.70
2018-05-11T01:19:15.050Z,10.70
2018-05-11T01:21:43.324Z,10.70
2018-05-11T01:24:10.801Z,10.70
2018-05-11T01:26:39.030Z,10.60
2018-05-11T01:29:06.550Z,10.60
2018-05-11T01:31:34.128Z,10.60
2018-05-11T01:34:01.616Z,10.60
2018-05-11T01:36:29.107Z,10.60
2018-05-11T01:38:56.590Z,10.50
2018-05-11T01:41:24.093Z,10.50
2018-05-11T01:43:51.553Z,10.50
2018-05-11T01:46:19.036Z,10.50
2018-05-11T01:48:46.676Z,10.50
2018-05-11T01:51:14.175Z,10.40
2018-05-11T01:53:41.742Z,10.40
2018-05-11T01:56:09.211Z,10.40
2018-05-11T01:58:36.694Z,10.30
2018-05-11T02:01:04.175Z,10.30
2018-05-11T02:03:31.636Z,10.30
2018-05-11T02:05:59.128Z,10.20
2018-05-11T02:08:27.409Z,10.20
2018-05-11T02:10:55.653Z,10.20
2018-05-11T02:13:23.127Z,10.20
2018-05-11T02:15:50.629Z,10.10
2018-05-11T02:18:18.109Z,10.10
2018-05-11T02:20:46.372Z,10.10
2018-05-11T02:23:13.854Z,10.00
2018-05-11T02:25:41.324Z,10.00
2018-05-11T02:28:08.816Z,10.00
2018-05-11T02:30:37.131Z,10.00
2018-05-11T02:33:04.650Z,10.00
2018-05-11T02:35:32.227Z,10.00
2018-05-11T02:37:59.805Z,10.00
2018-05-11T02:40:27.279Z,10.00
2018-05-11T02:42:55.557Z,10.00
2018-05-11T02:45:23.111Z,10.00
2018-05-11T02:47:50.582Z,9.90
2018-05-11T02:50:18.150Z,9.90
2018-05-11T02:52:45.617Z,9.90
2018-05-11T02:55:13.118Z,9.90
2018-05-11T02:57:41.349Z,9.90
2018-05-11T03:00:08.825Z,9.80
2018-05-11T03:02:36.305Z,9.90
2018-05-11T03:05:03.799Z,9.80
2018-05-11T03:07:31.285Z,9.80
2018-05-11T03:09:59.524Z,9.80
2018-05-11T03:12:27.019Z,9.80
2018-05-11T03:14:54.511Z,9.80
2018-05-11T03:17:21.989Z,9.80
2018-05-11T03:19:49.450Z,9.80
2018-05-11T03:22:16.922Z,9.80
2018-05-11T03:24:44.466Z,9.70
2018-05-11T03:27:11.943Z,9.70
2018-05-11T03:29:40.018Z,9.70
2018-05-11T03:32:07.608Z,9.70
2018-05-11T03:34:36.590Z,9.60
2018-05-11T03:37:04.095Z,9.60
2018-05-11T03:39:31.582Z,9.60
2018-05-11T03:41:59.068Z,9.70
2018-05-11T03:44:26.564Z,9.70
2018-05-11T03:46:54.022Z,9.70
2018-05-11T03:49:21.526Z,9.70
2018-05-11T03:51:48.998Z,9.80
2018-05-11T03:54:16.498Z,9.80
2018-05-11T03:56:44.747Z,9.80
2018-05-11T03:59:12.334Z,9.80
2018-05-11T04:01:53.236Z,10.00
2018-05-11T04:04:33.465Z,10.10
2018-05-11T04:07:12.834Z,10.10
2018-05-11T04:09:40.363Z,10.20
2018-05-11T04:12:09.317Z,10.30
2018-05-11T04:14:36.790Z,10.40
2018-05-11T04:17:04.285Z,10.50
2018-05-11T04:19:32.531Z,10.60
2018-05-11T04:22:00.100Z,10.60
2018-05-11T04:24:27.576Z,10.70
2018-05-11T04:26:55.047Z,10.70
2018-05-11T04:29:22.506Z,10.80
2018-05-11T04:31:50.000Z,10.80
2018-05-11T04:34:17.476Z,10.90
2018-05-11T04:36:45.714Z,11.00
2018-05-11T04:39:13.191Z,11.00
2018-05-11T04:41:40.676Z,11.10
2018-05-11T04:44:08.138Z,11.20
2018-05-11T04:46:35.614Z,11.20
2018-05-11T04:49:03.101Z,11.30
2018-05-11T04:51:30.577Z,11.40
2018-05-11T04:53:58.141Z,11.40
2018-05-11T04:56:25.618Z,11.60
2018-05-11T04:58:53.103Z,11.60
2018-05-11T05:01:21.349Z,11.70
2018-05-11T05:03:48.863Z,11.60
2018-05-11T05:06:17.104Z,11.80
2018-05-11T05:08:44.686Z,11.80
2018-05-11T05:11:12.189Z,11.90
2018-05-11T05:13:40.434Z,12.00
2018-05-11T05:16:07.898Z,12.00
2018-05-11T05:18:35.383Z,12.10
2018-05-11T05:21:02.867Z,12.20
2018-05-11T05:23:30.422Z,12.20
2018-05-11T05:25:57.942Z,12.30
2018-05-11T05:28:25.479Z,12.40
2018-05-11T05:30:52.973Z,12.50
2018-05-11T05:33:21.228Z,12.70
2018-05-11T05:35:48.810Z,12.70
2018-05-11T05:38:16.274Z,12.80
2018-05-11T05:40:43.752Z,12.90
2018-05-11T05:43:11.249Z,13.00
2018-05-11T05:45:39.501Z,13.10
2018-05-11T05:48:06.976Z,13.10
2018-05-11T05:50:34.538Z,13.20
2018-05-11T05:53:02.017Z,13.20
2018-05-11T05:55:29.516Z,13.20
2018-05-11T05:57:57.769Z,13.20
2018-05-11T06:00:25.238Z,13.20
2018-05-11T06:02:52.702Z,13.30
2018-05-11T06:05:20.269Z,13.30
2018-05-11T06:07:47.842Z,13.30
2018-05-11T06:10:15.319Z,13.40
2018-05-11T06:12:42.794Z,13.60
2018-05-11T06:15:11.093Z,13.90
2018-05-11T06:17:38.594Z,13.80
2018-05-11T06:20:06.073Z,13.90
2018-05-11T06:22:33.558Z,14.00
2018-05-11T06:25:01.059Z,14.00
2018-05-11T06:27:28.526Z,14.00
2018-05-11T06:29:56.005Z,14.00
2018-05-11T06:32:23.581Z,14.00
2018-05-11T06:34:51.083Z,14.00
2018-05-11T06:37:18.566Z,14.00
2018-05-11T06:39:46.030Z,14.00
2018-05-11T06:42:13.518Z,14.00
2018-05-11T06:44:40.978Z,14.00
2018-05-11T06:47:08.466Z,14.00
2018-05-11T06:49:35.941Z,14.10
2018-05-11T06:52:03.429Z,14.10
2018-05-11T06:54:30.906Z,14.20
2018-05-11T06:56:58.375Z,14.30
2018-05-11T06:59:25.873Z,14.30
2018-05-11T07:01:54.125Z,14.40
2018-05-11T07:04:21.709Z,14.40
2018-05-11T07:06:49.199Z,14.60
2018-05-11T07:09:17.450Z,14.60
2018-05-11T07:11:44.941Z,14.50
2018-05-11T07:14:12.414Z,14.50
2018-05-11T07:16:39.890Z,14.50
2018-05-11T07:19:08.258Z,14.80
2018-05-11T07:21:35.734Z,14.80
2018-05-11T07:24:03.190Z,14.80
2018-05-11T07:26:30.784Z,14.90
2018-05-11T07:28:58.245Z,15.10
2018-05-11T07:31:25.729Z,15.10
2018-05-11T07:33:53.969Z,15.10
2018-05-11T07:36:21.461Z,15.10
2018-05-11T07:38:48.948Z,15.20
2018-05-11T07:41:16.420Z,15.30
2018-05-11T07:43:43.900Z,15.40
2018-05-11T07:46:12.145Z,15.50
2018-05-11T07:48:39.614Z,15.50
2018-05-11T07:51:07.135Z,15.60
2018-05-11T07:53:35.398Z,15.90
2018-05-11T07:56:02.858Z,15.80
2018-05-11T07:58:30.365Z,16.00
2018-05-11T08:00:58.606Z,16.00
2018-05-11T08:03:26.070Z,16.00
2018-05-11T08:05:53.554Z,16.20
2018-05-11T08:08:21.036Z,16.20
2018-05-11T08:10:48.524Z,16.50
2018-05-11T08:13:16.002Z,16.70
2018-05-11T08:15:44.243Z,16.80
2018-05-11T08:18:11.741Z,16.80
2018-05-11T08:20:39.217Z,16.90
2018-05-11T08:23:06.686Z,16.90
2018-05-11T08:25:34.172Z,16.90
2018-05-11T08:28:02.419Z,16.80
2018-05-11T08:30:29.885Z,16.80
2018-05-11T08:32:57.378Z,16.90
2018-05-11T08:35:24.847Z,16.90
2018-05-11T08:37:52.341Z,17.10
2018-05-11T08:40:19.820Z,17.40
2018-05-11T08:42:48.281Z,17.50
2018-05-11T08:45:15.770Z,17.50
2018-05-11T08:47:43.334Z,17.50
2018-05-11T08:50:10.807Z,17.30
2018-05-11T08:52:38.302Z,17.10
2018-05-11T08:55:05.788Z,17.00
2018-05-11T08:57:34.015Z,16.90
2018-05-11T09:00:01.499Z,16.80
2018-05-11T09:02:29.014Z,17.00
2018-05-11T09:04:57.273Z,16.90
2018-05-11T09:07:24.740Z,16.90
2018-05-11T09:09:52.251Z,16.60
2018-05-11T09:12:20.509Z,16.30
2018-05-11T09:14:47.979Z,16.30
2018-05-11T09:17:15.473Z,16.20
2018-05-11T09:19:43.711Z,16.30
2018-05-11T09:22:11.212Z,16.30
2018-05-11T09:24:38.727Z,16.40
2018-05-11T09:27:06.931Z,16.40
2018-05-11T09:29:34.408Z,16.40
2018-05-11T09:32:01.890Z,16.60
2018-05-11T09:34:29.363Z,16.60
2018-05-11T09:36:56.838Z,16.50
2018-05-11T09:39:24.328Z,16.50
2018-05-11T09:41:51.817Z,16.40
2018-05-11T09:44:20.042Z,16.60
2018-05-11T09:46:47.520Z,16.50
2018-05-11T09:49:14.994Z,16.80
2018-05-11T09:51:42.476Z,17.10
2018-05-11T09:54:09.954Z,17.30
2018-05-11T09:56:37.426Z,17.40
2018-05-11T09:59:04.912Z,17.30
2018-05-11T10:01:33.151Z,17.20
2018-05-11T10:04:00.634Z,17.20
2018-05-11T10:06:28.114Z,17.40
2018-05-11T10:08:55.606Z,17.60
2018-05-11T10:11:23.074Z,17.60
2018-05-11T10:13:51.403Z,17.90
2018-05-11T10:16:19.605Z,18.00
2018-05-11T10:18:47.094Z,18.00
2018-05-11T10:21:15.338Z,18.40
2018-05-11T10:23:42.831Z,18.40
2018-05-11T10:26:10.370Z,18.60
2018-05-11T10:28:38.667Z,19.00
2018-05-11T10:31:06.094Z,19.00
2018-05-11T10:33:33.584Z,19.20
2018-05-11T10:36:01.046Z,19.30
2018-05-11T10:38:28.530Z,19.60
2018-05-11T10:40:56.781Z,19.90
2018-05-11T10:43:24.246Z,19.80
2018-05-11T10:45:51.751Z,20.30
2018-05-11T10:48:19.234Z,20.50
2018-05-11T10:50:47.478Z,20.60
2018-05-11T10:53:14.960Z,20.50
2018-05-11T10:55:42.456Z,20.50
2018-05-11T10:58:10.718Z,20.60
2018-05-11T11:00:38.247Z,20.60
2018-05-11T11:03:05.703Z,20.70
2018-05-11T11:05:33.954Z,20.90
2018-05-11T11:08:01.428Z,20.90
2018-05-11T11:10:28.914Z,21.20
2018-05-11T11:12:56.405Z,21.30
2018-05-11T11:15:24.631Z,21.50
2018-05-11T11:17:52.138Z,21.40
2018-05-11T11:20:19.622Z,21.70
2018-05-11T11:22:47.898Z,22.70
2018-05-11T11:25:15.374Z,22.70
2018-05-11T11:27:42.852Z,23.20
2018-05-11T11:30:11.112Z,24.70
2018-05-11T11:32:38.586Z,24.60
2018-05-11T11:35:06.077Z,25.50
2018-05-11T11:37:33.550Z,26.30
2018-05-11T11:40:01.030Z,27.00
2018-05-11T11:42:28.506Z,27.60
2018-05-11T11:44:55.986Z,28.60
2018-05-11T11:47:23.477Z,29.20
2018-05-11T11:49:51.766Z,30.60
2018-05-11T11:52:20.031Z,31.30
2018-05-11T11:54:47.492Z,31.20
2018-05-11T11:57:15.738Z,31.50
2018-05-11T11:59:43.226Z,31.40
2018-05-11T12:02:10.736Z,32.50
2018-05-11T12:04:38.216Z,33.20
2018-05-11T12:07:05.694Z,33.50
2018-05-11T12:09:33.166Z,33.40
2018-05-11T12:12:01.410Z,33.00
2018-05-11T12:14:28.883Z,32.90
2018-05-11T12:16:56.373Z,32.80
2018-05-11T12:19:23.866Z,32.90
2018-05-11T12:21:51.398Z,33.60
2018-05-11T12:24:18.873Z,34.10
2018-05-11T12:26:46.353Z,34.50
2018-05-11T12:29:13.848Z,35.00
2018-05-11T12:31:41.370Z,35.10
2018-05-11T12:34:08.837Z,34.80
2018-05-11T12:36:36.308Z,34.70
2018-05-11T12:39:03.819Z,34.90
2018-05-11T12:41:31.302Z,35.20
2018-05-11T12:43:58.785Z,34.70
2018-05-11T12:46:26.259Z,34.40
2018-05-11T12:48:54.486Z,34.50
2018-05-11T12:51:21.977Z,34.40
2018-05-11T12:53:49.448Z,35.40
2018-05-11T12:56:16.951Z,35.40
2018-05-11T12:58:44.431Z,35.90
2018-05-11T13:01:11.929Z,36.60
2018-05-11T13:03:39.415Z,36.60
2018-05-11T13:06:06.909Z,36.60
2018-05-11T13:08:34.380Z,36.60
2018-05-11T13:11:01.848Z,37.00
2018-05-11T13:13:29.346Z,37.20
2018-05-11T13:15:56.915Z,36.70
2018-05-11T13:18:24.477Z,36.00
2018-05-11T13:20:52.008Z,35.40
2018-05-11T13:23:19.447Z,35.90
2018-05-11T13:25:46.963Z,36.70
2018-05-11T13:28:14.457Z,37.40
2018-05-11T13:30:42.122Z,38.10
2018-05-11T13:33:09.529Z,39.00
2018-05-11T13:35:36.994Z,39.00
2018-05-11T13:38:04.478Z,39.60
2018-05-11T13:40:32.694Z,39.30
2018-05-11T13:43:00.165Z,39.30
2018-05-11T13:45:27.665Z,39.30
2018-05-11T13:47:55.158Z,40.10
2018-05-11T13:50:22.728Z,40.90
2018-05-11T13:52:50.203Z,41.40
2018-05-11T13:55:17.665Z,41.30
2018-05-11T13:57:45.128Z,41.10
2018-05-11T14:00:12.591Z,40.20
2018-05-11T14:02:40.069Z,39.40
2018-05-11T14:05:07.568Z,39.20
2018-05-11T14:07:35.047Z,38.90
2018-05-11T14:10:02.611Z,39.60
2018-05-11T14:12:30.151Z,39.80
2018-05-11T14:14:57.660Z,40.30
2018-05-11T14:17:25.139Z,40.70
2018-05-11T14:19:52.592Z,41.40
2018-05-11T14:22:20.058Z,41.50
2018-05-11T14:24:47.585Z,41.70
2018-05-11T14:27:15.015Z,42.00
2018-05-11T14:29:42.479Z,42.00
2018-05-11T14:32:09.957Z,41.80
2018-05-11T14:34:37.441Z,41.80
2018-05-11T14:37:05.673Z,41.80
2018-05-11T14:39:33.523Z,41.70
2018-05-11T14:42:00.990Z,42.40
2018-05-11T14:44:28.473Z,42.90
2018-05-11T14:46:55.966Z,43.50
2018-05-11T14:49:23.461Z,43.80
2018-05-11T14:51:50.975Z,43.60
2018-05-11T14:54:18.443Z,43.40
2018-05-11T14:56:46.683Z,44.30
2018-05-11T14:59:14.152Z,44.30
2018-05-11T15:01:41.615Z,44.70
2018-05-11T15:04:09.193Z,45.10
2018-05-11T15:06:36.808Z,45.20
2018-05-11T15:09:05.982Z,44.90
2018-05-11T15:11:33.573Z,44.80
2018-05-11T15:14:01.060Z,45.20
2018-05-11T15:16:29.306Z,45.00
2018-05-11T15:18:56.795Z,45.00
2018-05-11T15:21:24.265Z,44.10
2018-05-11T15:23:51.871Z,43.40
2018-05-11T15:26:19.346Z,42.20
2018-05-11T15:28:46.816Z,42.00
2018-05-11T15:31:14.376Z,41.90
2018-05-11T15:33:41.790Z,42.00
2018-05-11T15:36:09.300Z,42.30
2018-05-11T15:38:39.669Z,42.80
2018-05-11T15:41:14.149Z,42.90
2018-05-11T15:43:41.805Z,42.90
2018-05-11T15:46:09.270Z,42.90
2018-05-11T15:48:36.744Z,42.80
2018-05-11T15:51:04.221Z,42.30
2018-05-11T15:53:31.702Z,42.00
2018-05-11T15:55:59.175Z,42.00
2018-05-11T15:58:26.660Z,41.40
2018-05-11T16:00:54.209Z,41.80
2018-05-11T16:03:21.677Z,41.60
2018-05-11T16:05:49.182Z,41.50
2018-05-11T16:08:16.625Z,41.50
2018-05-11T16:10:44.082Z,41.60
2018-05-11T16:13:12.389Z,40.30
2018-05-11T16:15:39.857Z,40.30
2018-05-11T16:18:07.311Z,40.00
2018-05-11T16:20:34.803Z,39.60
2018-05-11T16:23:02.261Z,38.90
2018-05-11T16:25:29.733Z,38.40
2018-05-11T16:27:57.217Z,37.90
2018-05-11T16:30:24.698Z,37.10
2018-05-11T16:32:52.927Z,36.60
2018-05-11T16:35:20.407Z,36.70
2018-05-11T16:37:47.890Z,36.90
2018-05-11T16:40:15.378Z,37.10
2018-05-11T16:42:42.834Z,37.70
2018-05-11T16:45:10.315Z,38.00
2018-05-11T16:47:37.786Z,38.60
2018-05-11T16:50:05.355Z,38.70
2018-05-11T16:52:32.836Z,38.90
2018-05-11T16:55:00.321Z,39.20
2018-05-11T16:57:28.581Z,39.20
2018-05-11T16:59:56.049Z,39.30
2018-05-11T17:02:23.533Z,39.10
2018-05-11T17:04:51.099Z,38.70
2018-05-11T17:07:18.557Z,38.60
2018-05-11T17:09:46.038Z,38.50
2018-05-11T17:12:13.510Z,38.60
2018-05-11T17:14:41.197Z,38.70
2018-05-11T17:17:08.682Z,38.30
2018-05-11T17:19:36.930Z,37.50
2018-05-11T17:22:04.401Z,37.50
2018-05-11T17:24:31.876Z,37.50
2018-05-11T17:26:59.358Z,37.70
2018-05-11T17:29:26.828Z,37.50
2018-05-11T17:31:54.411Z,37.50
2018-05-11T17:34:21.902Z,37.40
2018-05-11T17:36:49.383Z,37.30
2018-05-11T17:39:16.846Z,37.20
2018-05-11T17:41:44.384Z,36.70
2018-05-11T17:44:11.885Z,36.40
2018-05-11T17:46:40.134Z,34.50
2018-05-11T17:49:07.613Z,34.40
2018-05-11T17:54:25.689Z,32.60
2018-05-11T17:56:53.254Z,31.80
2018-05-11T17:59:21.418Z,30.60
2018-05-11T18:01:48.892Z,30.50
2018-05-11T18:04:16.345Z,29.90
2018-05-11T18:06:43.954Z,29.20
2018-05-11T18:09:12.126Z,28.30
2018-05-11T18:11:39.579Z,28.30
2018-05-11T18:14:07.050Z,28.00
2018-05-11T18:16:34.495Z,27.70
2018-05-11T18:19:02.750Z,27.20
2018-05-11T18:21:30.215Z,27.20
2018-05-11T18:23:57.670Z,27.00
2018-05-11T18:26:25.124Z,26.90
2018-05-11T18:28:52.598Z,26.80
2018-05-11T18:31:20.090Z,26.60
2018-05-11T18:33:47.554Z,26.40
2018-05-11T18:36:15.016Z,26.30
2018-05-11T18:38:42.493Z,26.10
2018-05-11T18:41:09.971Z,26.10
2018-05-11T18:43:37.546Z,26.00
2018-05-11T18:46:05.005Z,25.80
2018-05-11T18:48:32.450Z,25.70
2018-05-11T18:50:59.946Z,25.70
2018-05-11T18:53:27.638Z,25.60
2018-05-11T18:55:54.886Z,25.60
2018-05-11T18:58:22.367Z,25.50
2018-05-11T19:00:49.843Z,25.40
2018-05-11T19:03:17.297Z,25.40
2018-05-11T19:05:44.771Z,25.30
2018-05-11T19:08:12.255Z,25.20
2018-05-11T19:10:39.719Z,25.10
2018-05-11T19:13:07.183Z,25.00
2018-05-11T19:15:34.677Z,24.90
2018-05-11T19:18:02.153Z,24.80
2018-05-11T19:20:29.587Z,24.80
2018-05-11T19:22:57.042Z,24.60
2018-05-11T19:25:24.499Z,24.60
2018-05-11T19:27:52.036Z,24.50
2018-05-11T19:30:19.484Z,24.40
2018-05-11T19:32:46.966Z,24.30
2018-05-11T19:35:14.522Z,24.30
2018-05-11T19:37:42.011Z,24.20
2018-05-11T19:40:09.448Z,24.10
2018-05-11T19:42:36.896Z,24.10
2018-05-11T19:45:04.415Z,24.00
2018-05-11T19:47:31.983Z,23.90
2018-05-11T19:49:59.445Z,23.80
2018-05-11T19:52:26.891Z,23.80
2018-05-11T19:54:54.375Z,23.70
2018-05-11T19:57:21.906Z,23.60
2018-05-11T19:59:49.386Z,23.60
2018-05-11T20:02:16.838Z,23.50
2018-05-11T20:04:45.115Z,23.50
2018-05-11T20:07:12.675Z,23.40
2018-05-11T20:09:40.246Z,23.40
2018-05-11T20:12:07.835Z,23.30
2018-05-11T20:14:36.082Z,23.30
2018-05-11T20:17:03.560Z,23.30
2018-05-11T20:19:31.027Z,23.20
2018-05-11T20:21:58.498Z,23.20
2018-05-11T20:24:25.994Z,23.20
2018-05-11T20:26:53.478Z,23.10
2018-05-11T20:29:21.758Z,22.90
2018-05-11T20:31:49.268Z,22.90
2018-05-11T20:34:16.767Z,22.90
2018-05-11T20:36:44.238Z,22.90
2018-05-11T20:39:11.723Z,22.90
2018-05-11T20:41:40.013Z,22.60
2018-05-11T20:44:07.470Z,22.60
2018-05-11T20:46:34.928Z,22.60
2018-05-11T20:49:02.396Z,22.50
2018-05-11T20:51:29.887Z,22.40
2018-05-11T20:53:57.455Z,22.40
2018-05-11T20:56:24.900Z,22.30
2018-05-11T20:58:52.400Z,22.30
2018-05-11T21:01:19.848Z,22.20
2018-05-11T21:03:47.319Z,22.10
2018-05-11T21:06:14.822Z,22.20
2018-05-11T21:08:42.295Z,22.10
2018-05-11T21:11:09.778Z,22.10
2018-05-11T21:13:37.228Z,22.00
2018-05-11T21:16:04.798Z,22.00
2018-05-11T21:18:32.369Z,21.90
2018-05-11T21:20:59.821Z,21.90
2018-05-11T21:23:27.290Z,21.80
2018-05-11T21:25:54.768Z,21.80
2018-05-11T21:28:22.255Z,21.80
2018-05-11T21:30:49.823Z,21.80
2018-05-11T21:33:17.406Z,21.80
2018-05-11T21:35:44.870Z,21.70
2018-05-11T21:38:12.346Z,21.60
2018-05-11T21:40:39.843Z,21.60
2018-05-11T21:43:08.064Z,21.50
2018-05-11T21:45:35.558Z,21.40
2018-05-11T21:48:03.023Z,21.40
2018-05-11T21:50:30.583Z,21.30
2018-05-11T21:52:57.963Z,21.30
2018-05-11T21:55:25.505Z,21.20
2018-05-11T21:57:52.961Z,21.10
2018-05-11T22:00:21.179Z,20.80
2018-05-11T22:02:48.648Z,20.80
2018-05-11T22:05:16.119Z,20.70
2018-05-11T22:07:43.598Z,20.70
2018-05-11T22:10:11.070Z,20.60
2018-05-11T22:12:38.535Z,20.50
2018-05-11T22:15:05.999Z,20.50
2018-05-11T22:17:33.500Z,20.40
2018-05-11T22:20:00.952Z,20.40
2018-05-11T22:22:28.442Z,20.40
2018-05-11T22:24:55.927Z,20.40
2018-05-11T22:27:23.472Z,20.30
2018-05-11T22:29:51.055Z,20.30
2018-05-11T22:32:18.497Z,20.30
2018-05-11T22:34:46.007Z,20.10
2018-05-11T22:37:13.487Z,20.10
2018-05-11T22:39:40.944Z,20.10
2018-05-11T22:42:08.561Z,20.10
2018-05-11T22:44:36.077Z,20.10
2018-05-11T22:47:03.528Z,20.20
2018-05-11T22:49:31.030Z,20.10
2018-05-11T22:51:58.480Z,20.10
2018-05-11T22:54:25.971Z,20.10
2018-05-11T22:56:53.547Z,20.10
2018-05-11T22:59:21.034Z,20.10
2018-05-11T23:01:48.587Z,20.10
2018-05-11T23:04:16.059Z,20.10
2018-05-11T23:06:43.562Z,20.10
2018-05-11T23:09:11.800Z,19.90
2018-05-11T23:11:39.335Z,19.90
2018-05-11T23:14:06.844Z,19.90
2018-05-11T23:16:34.296Z,19.90
2018-05-11T23:19:01.783Z,19.80
2018-05-11T23:21:29.246Z,19.80
2018-05-11T23:23:56.842Z,19.70
2018-05-11T23:26:24.307Z,19.70
2018-05-11T23:28:51.774Z,19.70
2018-05-11T23:31:19.247Z,19.70
2018-05-11T23:33:46.817Z,19.70
2018-05-11T23:36:14.282Z,19.70
2018-05-11T23:38:41.774Z,19.70
2018-05-11T23:41:09.335Z,19.80
2018-05-11T23:43:36.802Z,19.80
2018-05-11T23:46:04.270Z,19.80
2018-05-11T23:48:31.720Z,19.70
2018-05-11T23:50:59.211Z,19.60
2018-05-11T23:53:26.682Z,19.60
2018-05-11T23:55:54.155Z,19.50
2018-05-11T23:58:21.646Z,19.50
